Time;durP1;ratioP1;P1;durP2;ratioP2;P2;SDS_P1;SDS_P2;PMS_P1;PMS_P2;Temp;Humidity;BMP_temperature;BMP_pressure;BME280_temperature;BME280_humidity;BME280_pressure;Samples;Min_cycle;Max_cycle;Signal;HPM_P1;HPM_P2
2022/07/16 00:02:45;;;;;;;6.13;2.40;;;29.50;76.10;;;;;;6184917;23;20094;-68
2022/07/16 00:05:12;;;;;;;4.82;2.38;;;29.50;75.60;;;;;;6176783;23;20044;-68
2022/07/16 00:07:38;;;;;;;4.93;2.47;;;29.50;76.40;;;;;;6177797;23;20013;-68
2022/07/16 00:10:04;;;;;;;4.57;2.55;;;29.50;76.60;;;;;;6150348;23;20017;-68
2022/07/16 00:12:30;;;;;;;5.18;2.28;;;29.50;76.40;;;;;;6177354;23;20009;-68
2022/07/16 00:14:56;;;;;;;4.75;2.70;;;29.40;76.50;;;;;;6178257;23;20351;-68
2022/07/16 00:17:22;;;;;;;3.83;2.65;;;29.30;76.60;;;;;;6149833;23;20025;-68
2022/07/16 00:19:48;;;;;;;2.58;2.00;;;29.30;76.90;;;;;;6177305;23;20009;-68
2022/07/16 00:22:14;;;;;;;4.25;2.13;;;29.30;77.00;;;;;;6176895;23;20017;-69
2022/07/16 00:24:40;;;;;;;3.92;2.10;;;29.30;76.80;;;;;;6177094;23;20067;-69
2022/07/16 00:27:06;;;;;;;5.18;2.22;;;29.30;76.90;;;;;;6177064;23;20318;-69
2022/07/16 00:29:31;;;;;;;5.40;2.40;;;29.30;77.00;;;;;;6151289;23;20005;-68
2022/07/16 00:31:58;;;;;;;3.80;2.05;;;29.30;77.10;;;;;;6177935;23;20356;-69
2022/07/16 00:34:24;;;;;;;4.13;2.03;;;29.20;77.50;;;;;;6149820;23;20009;-68
2022/07/16 00:36:50;;;;;;;4.20;2.20;;;29.20;77.20;;;;;;6177312;23;20027;-69
2022/07/16 00:39:17;;;;;;;8.05;2.20;;;29.20;77.10;;;;;;6176479;23;20458;-68
2022/07/16 00:41:45;;;;;;;3.50;2.00;;;29.10;77.20;;;;;;6177531;23;20495;-69
2022/07/16 00:44:17;;;;;;;8.98;2.20;;;29.10;77.10;;;;;;6176191;23;20334;-68
2022/07/16 00:46:45;;;;;;;3.50;2.13;;;29.10;76.90;;;;;;6150874;23;20017;-69
2022/07/16 00:49:11;;;;;;;3.25;1.83;;;29.10;76.80;;;;;;6150386;23;20342;-68
2022/07/16 00:51:45;;;;;;;4.45;1.98;;;29.20;76.80;;;;;;6177729;23;20019;-69
2022/07/16 00:54:12;;;;;;;6.18;2.40;;;29.20;76.80;;;;;;6149684;23;20025;-68
2022/07/16 00:56:38;;;;;;;5.47;2.00;;;29.20;76.70;;;;;;6177791;23;20534;-69
2022/07/16 00:59:04;;;;;;;4.00;1.80;;;29.20;76.60;;;;;;6149984;23;20178;-69
2022/07/16 01:01:29;;;;;;;3.15;2.00;;;29.20;76.40;;;;;;6150640;23;20025;-69
2022/07/16 01:03:55;;;;;;;2.30;1.80;;;29.10;76.20;;;;;;6177379;23;20382;-69
2022/07/16 01:06:22;;;;;;;2.85;1.80;;;29.10;76.20;;;;;;6149462;23;20341;-69
2022/07/16 01:08:49;;;;;;;2.47;1.70;;;29.10;76.20;;;;;;6150840;23;20009;-69
2022/07/16 01:11:17;;;;;;;4.57;2.05;;;29.10;76.00;;;;;;6177172;23;20013;-69
2022/07/16 01:13:47;;;;;;;3.92;2.00;;;29.10;75.70;;;;;;6177374;23;20063;-69
2022/07/16 01:16:14;;;;;;;2.53;1.90;;;29.10;75.80;;;;;;6176272;23;20043;-69
2022/07/16 01:18:41;;;;;;;3.22;1.77;;;29.10;75.80;;;;;;6177830;23;20016;-69
2022/07/16 01:21:07;;;;;;;2.60;1.60;;;29.10;75.90;;;;;;6149694;23;20091;-69
2022/07/16 01:23:33;;;;;;;5.43;2.20;;;29.10;75.80;;;;;;6149868;23;20005;-69
2022/07/16 01:26:01;;;;;;;4.88;1.80;;;29.10;75.70;;;;;;6151300;23;20037;-68
2022/07/16 01:28:28;;;;;;;1.83;1.58;;;29.20;75.70;;;;;;6161811;23;20009;-69
2022/07/16 01:30:54;;;;;;;5.75;1.90;;;29.20;75.50;;;;;;6177111;23;20017;-68
2022/07/16 01:33:32;;;;;;;5.40;2.00;;;29.10;75.60;;;;;;6149552;23;20017;-68
2022/07/16 01:36:13;;;;;;;6.15;1.75;;;29.20;75.20;;;;;;6177046;23;20044;-68
2022/07/16 01:38:43;;;;;;;3.22;2.00;;;29.20;74.80;;;;;;6186152;23;20041;-68
2022/07/16 01:41:10;;;;;;;2.97;1.80;;;29.20;75.00;;;;;;6154279;23;20036;-67
2022/07/16 01:43:36;;;;;;;1.70;1.52;;;29.20;74.80;;;;;;6177016;23;20029;-68
2022/07/16 01:46:03;;;;;;;2.17;1.70;;;29.20;74.80;;;;;;6150449;23;20017;-68
2022/07/16 01:48:30;;;;;;;4.72;1.80;;;29.20;75.00;;;;;;6176537;23;20017;-69
2022/07/16 01:50:56;;;;;;;4.18;1.90;;;29.20;74.90;;;;;;6150674;23;20088;-69
2022/07/16 01:53:22;;;;;;;6.05;1.92;;;29.20;75.10;;;;;;6160872;23;20226;-68
2022/07/16 01:55:48;;;;;;;4.22;1.80;;;29.20;75.10;;;;;;6177533;23;20013;-69
2022/07/16 01:58:15;;;;;;;3.42;1.95;;;29.30;74.90;;;;;;6176336;23;20392;-69
2022/07/16 02:00:43;;;;;;;4.00;2.03;;;29.20;75.00;;;;;;6179554;23;20476;-68
2022/07/16 02:03:09;;;;;;;2.78;1.70;;;29.20;75.00;;;;;;6177386;23;20039;-69
2022/07/16 02:05:35;;;;;;;2.60;1.70;;;29.20;74.70;;;;;;6179525;23;20020;-68
2022/07/16 02:08:02;;;;;;;3.38;2.10;;;29.30;74.80;;;;;;6178467;23;20016;-68
2022/07/16 02:10:28;;;;;;;4.60;2.10;;;29.40;74.80;;;;;;6178045;23;20013;-69
2022/07/16 02:12:54;;;;;;;4.47;1.90;;;29.40;74.90;;;;;;6152401;23;20013;-68
2022/07/16 02:15:20;;;;;;;3.33;2.20;;;29.50;75.20;;;;;;6178541;23;20484;-68
2022/07/16 02:17:46;;;;;;;4.43;2.20;;;29.50;75.40;;;;;;6151935;23;20013;-68
2022/07/16 02:20:12;;;;;;;4.28;2.53;;;29.40;75.40;;;;;;6126988;23;20017;-68
2022/07/16 02:22:38;;;;;;;3.20;2.33;;;29.40;75.40;;;;;;6178248;23;20067;-69
2022/07/16 02:25:06;;;;;;;4.53;2.10;;;29.40;75.30;;;;;;6178362;23;20020;-67
2022/07/16 02:27:32;;;;;;;3.03;2.05;;;29.50;75.20;;;;;;6152666;23;20016;-68
2022/07/16 02:29:59;;;;;;;4.40;2.22;;;29.40;74.80;;;;;;6151898;23;20096;-69
2022/07/16 02:32:25;;;;;;;3.63;2.25;;;29.50;74.80;;;;;;6177686;23;20322;-67
2022/07/16 02:34:51;;;;;;;4.00;2.30;;;29.40;74.60;;;;;;6178810;23;20017;-68
2022/07/16 02:37:17;;;;;;;5.28;1.85;;;29.40;74.60;;;;;;6176979;23;20017;-69
2022/07/16 02:39:43;;;;;;;4.35;2.10;;;29.30;74.40;;;;;;6178295;23;20028;-68
2022/07/16 02:42:09;;;;;;;4.90;2.20;;;29.20;74.30;;;;;;6177727;23;20329;-69
2022/07/16 02:44:34;;;;;;;3.90;2.13;;;29.10;74.10;;;;;;6178398;23;20009;-68
2022/07/16 02:47:00;;;;;;;3.33;2.10;;;29.10;74.00;;;;;;6179323;23;20123;-68
2022/07/16 02:49:26;;;;;;;3.15;2.10;;;29.10;73.80;;;;;;6177163;23;20318;-68
2022/07/16 02:51:52;;;;;;;4.70;1.95;;;29.00;73.80;;;;;;6152185;23;20016;-68
2022/07/16 02:54:18;;;;;;;6.88;2.30;;;29.00;73.50;;;;;;6150859;23;20021;-68
2022/07/16 02:56:44;;;;;;;3.45;2.28;;;29.00;73.40;;;;;;6178971;23;20009;-68
2022/07/16 02:59:09;;;;;;;3.80;2.30;;;29.00;73.60;;;;;;6150691;23;20438;-68
2022/07/16 03:01:35;;;;;;;4.10;2.10;;;29.00;73.80;;;;;;6178777;23;20021;-69
2022/07/16 03:04:02;;;;;;;3.28;1.98;;;29.00;73.70;;;;;;6177872;23;20017;-69
2022/07/16 03:06:27;;;;;;;3.78;2.25;;;29.00;73.70;;;;;;6151870;23;20080;-68
2022/07/16 03:08:53;;;;;;;3.33;2.00;;;29.00;73.80;;;;;;6178345;23;20033;-68
2022/07/16 03:11:19;;;;;;;3.17;2.05;;;29.10;73.80;;;;;;6150708;23;20024;-68
2022/07/16 03:13:44;;;;;;;4.50;2.20;;;29.20;73.80;;;;;;6179493;23;20009;-68
2022/07/16 03:16:10;;;;;;;3.25;2.28;;;29.20;73.80;;;;;;6177376;23;20021;-68
2022/07/16 03:18:36;;;;;;;5.18;2.70;;;29.30;73.80;;;;;;6152438;23;20358;-67
2022/07/16 03:21:02;;;;;;;3.05;2.17;;;29.30;73.70;;;;;;6151563;23;20092;-68
2022/07/16 03:23:28;;;;;;;2.67;2.20;;;29.30;73.40;;;;;;6189900;23;20382;-69
2022/07/16 03:25:54;;;;;;;4.38;2.35;;;29.30;73.30;;;;;;6178150;23;20020;-69
2022/07/16 03:28:19;;;;;;;4.35;2.40;;;29.40;73.10;;;;;;6151576;23;20027;-69
2022/07/16 03:30:45;;;;;;;6.05;2.60;;;29.40;72.80;;;;;;6179011;23;20021;-68
2022/07/16 03:33:11;;;;;;;3.72;2.15;;;29.50;72.50;;;;;;6177352;23;20100;-67
2022/07/16 03:35:37;;;;;;;2.85;2.10;;;29.60;72.30;;;;;;6178694;23;20028;-68
2022/07/16 03:40:47;;;;;;;2.83;2.08;;;29.70;72.30;;;;;;6179048;23;20044;-68
2022/07/16 03:43:14;;;;;;;4.47;2.38;;;29.60;72.20;;;;;;6177628;23;20341;-68
2022/07/16 03:45:40;;;;;;;5.57;2.50;;;29.60;72.20;;;;;;6178304;23;20112;-68
2022/07/16 03:48:06;;;;;;;5.70;2.70;;;29.60;72.70;;;;;;6176515;23;20037;-69
2022/07/16 03:50:32;;;;;;;5.53;2.80;;;29.60;72.90;;;;;;6152182;23;20087;-68
2022/07/16 03:52:58;;;;;;;5.55;2.80;;;29.50;72.90;;;;;;6179081;23;20017;-68
2022/07/16 03:55:24;;;;;;;4.22;2.70;;;29.50;72.90;;;;;;6177379;23;20072;-68
2022/07/16 03:57:51;;;;;;;3.58;2.63;;;29.40;73.00;;;;;;6152238;23;20013;-69
2022/07/16 04:00:17;;;;;;;3.65;2.70;;;29.40;72.90;;;;;;6176750;23;20079;-69
2022/07/16 04:02:43;;;;;;;6.20;2.50;;;29.30;72.70;;;;;;6177804;23;20025;-69
2022/07/16 04:05:09;;;;;;;3.90;2.50;;;29.40;72.90;;;;;;6150389;23;20092;-68
2022/07/16 04:07:36;;;;;;;4.00;2.42;;;29.30;72.60;;;;;;6151150;23;20095;-68
2022/07/16 04:10:03;;;;;;;2.85;2.55;;;29.20;72.40;;;;;;6177912;23;20017;-67
2022/07/16 04:12:29;;;;;;;3.17;2.50;;;29.20;72.40;;;;;;6177332;23;20037;-69
2022/07/16 04:14:54;;;;;;;3.28;2.45;;;29.10;72.60;;;;;;6151477;23;20016;-68
2022/07/16 04:17:20;;;;;;;4.40;2.45;;;29.10;72.30;;;;;;6176797;23;20445;-68
2022/07/16 04:19:46;;;;;;;4.78;2.42;;;29.00;72.70;;;;;;6177562;23;20435;-68
2022/07/16 04:22:12;;;;;;;4.82;3.05;;;28.90;72.80;;;;;;6176353;23;20456;-68
2022/07/16 04:24:38;;;;;;;5.53;2.83;;;28.90;72.60;;;;;;6163475;23;20012;-69
2022/07/16 04:27:04;;;;;;;3.88;2.78;;;28.80;72.30;;;;;;6142140;23;20024;-67
2022/07/16 04:29:29;;;;;;;5.88;3.15;;;28.80;73.00;;;;;;6150810;23;20013;-68
2022/07/16 04:31:55;;;;;;;5.60;3.20;;;28.70;72.60;;;;;;6177965;23;20021;-68
2022/07/16 04:34:21;;;;;;;4.40;2.70;;;28.80;74.30;;;;;;6177249;23;20013;-68
2022/07/16 04:36:47;;;;;;;6.65;3.50;;;28.60;75.20;;;;;;6151318;23;20009;-68
2022/07/16 04:39:13;;;;;;;6.68;2.95;;;28.50;75.60;;;;;;6176944;23;20317;-67
2022/07/16 04:41:39;;;;;;;4.93;2.83;;;28.40;75.70;;;;;;6151275;23;20032;-67
2022/07/16 04:44:05;;;;;;;4.10;3.13;;;28.30;76.30;;;;;;6177475;23;20017;-68
2022/07/16 04:46:31;;;;;;;4.70;3.03;;;28.40;76.90;;;;;;6151235;23;20005;-68
2022/07/16 04:48:56;;;;;;;3.58;2.90;;;28.40;77.00;;;;;;6151496;23;20013;-68
2022/07/16 04:51:22;;;;;;;4.68;3.42;;;28.30;77.10;;;;;;6177486;23;20021;-68
2022/07/16 04:53:48;;;;;;;8.40;3.88;;;28.30;78.00;;;;;;6151330;23;20029;-68
2022/07/16 04:56:14;;;;;;;4.72;3.65;;;28.20;78.50;;;;;;6177547;23;20017;-68
2022/07/16 04:58:39;;;;;;;6.15;3.60;;;28.20;79.30;;;;;;6177738;23;20044;-68
2022/07/16 05:01:06;;;;;;;9.27;3.90;;;28.00;80.80;;;;;;6176330;23;20461;-68
2022/07/16 05:03:32;;;;;;;5.20;4.13;;;28.00;82.30;;;;;;6177957;23;20352;-68
2022/07/16 05:05:58;;;;;;;7.05;4.22;;;27.90;83.40;;;;;;6151276;23;20442;-68
2022/07/16 05:08:24;;;;;;;7.28;4.70;;;27.90;84.20;;;;;;6176176;23;20059;-68
2022/07/16 05:10:49;;;;;;;8.55;4.72;;;27.80;85.00;;;;;;6177788;23;20009;-69
2022/07/16 05:13:15;;;;;;;5.03;3.63;;;27.80;85.20;;;;;;6177027;23;20036;-67
2022/07/16 05:15:41;;;;;;;7.88;4.35;;;27.80;85.20;;;;;;6151303;23;20021;-69
2022/07/16 05:18:08;;;;;;;7.00;4.22;;;27.90;85.10;;;;;;6176454;23;20370;-68
2022/07/16 05:20:34;;;;;;;8.10;4.45;;;27.90;85.40;;;;;;6151068;23;20017;-68
2022/07/16 05:22:59;;;;;;;5.60;4.07;;;27.90;85.50;;;;;;6177513;23;20024;-68
2022/07/16 05:25:26;;;;;;;9.10;4.80;;;27.90;85.50;;;;;;6177203;23;20016;-68
2022/07/16 05:27:52;;;;;;;8.93;4.60;;;27.90;85.40;;;;;;6177394;23;20013;-68
2022/07/16 05:30:17;;;;;;;8.65;4.38;;;28.00;85.50;;;;;;6149865;23;20013;-68
2022/07/16 05:32:44;;;;;;;8.43;4.32;;;28.00;85.30;;;;;;6178523;23;20106;-69
2022/07/16 05:35:12;;;;;;;9.23;4.00;;;28.10;85.10;;;;;;6178546;23;20017;-68
2022/07/16 05:37:38;;;;;;;7.07;4.50;;;28.10;85.00;;;;;;6180357;23;20019;-69
2022/07/16 05:40:05;;;;;;;6.07;4.45;;;28.20;85.00;;;;;;6178758;23;20017;-70
2022/07/16 05:42:32;;;;;;;10.95;4.70;;;28.20;84.80;;;;;;6153157;23;20017;-68
2022/07/16 05:44:57;;;;;;;7.53;4.30;;;28.20;84.70;;;;;;6179572;23;20039;-68
2022/07/16 05:47:23;;;;;;;6.25;4.18;;;28.30;84.90;;;;;;6178055;23;20005;-68
2022/07/16 05:49:49;;;;;;;6.93;4.32;;;28.30;84.60;;;;;;6162689;23;20467;-69
2022/07/16 05:52:15;;;;;;;5.95;4.03;;;28.40;84.40;;;;;;6180952;23;20017;-68
2022/07/16 05:54:40;;;;;;;7.38;3.92;;;28.40;84.30;;;;;;6152616;23;20830;-70
2022/07/16 05:57:06;;;;;;;7.00;3.97;;;28.50;84.20;;;;;;6175688;23;20087;-69
2022/07/16 05:59:35;;;;;;;6.65;4.30;;;28.60;84.10;;;;;;6174351;23;20071;-69
2022/07/16 06:02:01;;;;;;;9.85;4.05;;;28.60;84.00;;;;;;6145636;23;20349;-67
2022/07/16 06:04:27;;;;;;;6.30;4.18;;;28.60;83.90;;;;;;6172402;23;20013;-66
2022/07/16 06:06:53;;;;;;;7.32;4.05;;;28.60;83.80;;;;;;6177858;23;20009;-70
2022/07/16 06:09:18;;;;;;;8.98;3.95;;;28.70;83.80;;;;;;6151688;23;20035;-68
2022/07/16 06:11:46;;;;;;;9.63;3.72;;;28.70;83.70;;;;;;6178361;23;20017;-68
2022/07/16 06:14:11;;;;;;;15.05;4.13;;;28.80;83.70;;;;;;6152187;23;20459;-68
2022/07/16 06:16:40;;;;;;;7.75;4.50;;;28.80;83.60;;;;;;6179072;23;20013;-69
2022/07/16 06:19:06;;;;;;;7.95;4.15;;;28.80;83.40;;;;;;6177929;23;20070;-68
2022/07/16 06:21:32;;;;;;;7.65;3.80;;;29.00;83.60;;;;;;6179299;23;20052;-69
2022/07/16 06:23:58;;;;;;;8.45;3.97;;;29.00;83.20;;;;;;6179166;23;20325;-70
2022/07/16 06:26:24;;;;;;;7.03;3.50;;;29.10;83.20;;;;;;6171074;23;20440;-69
2022/07/16 06:28:49;;;;;;;8.60;4.00;;;29.20;83.20;;;;;;6174231;23;20084;-69
2022/07/16 06:31:15;;;;;;;6.13;3.78;;;29.20;82.90;;;;;;6144994;23;20024;-69
2022/07/16 06:33:41;;;;;;;8.75;3.92;;;29.30;82.80;;;;;;6173539;23;20060;-70
2022/07/16 06:36:07;;;;;;;11.23;4.68;;;29.30;82.50;;;;;;6144451;23;20099;-68
2022/07/16 06:38:33;;;;;;;11.82;3.80;;;29.40;83.10;;;;;;6172264;23;20032;-68
2022/07/16 06:40:58;;;;;;;6.97;4.03;;;29.50;83.10;;;;;;6172243;23;20075;-68
2022/07/16 06:43:24;;;;;;;7.60;3.70;;;29.60;82.90;;;;;;6140933;23;20138;-68
2022/07/16 06:45:50;;;;;;;8.18;4.10;;;29.60;83.20;;;;;;6169265;23;20131;-69
2022/07/16 06:48:16;;;;;;;11.60;4.15;;;29.70;83.20;;;;;;6143229;23;20013;-68
2022/07/16 06:50:42;;;;;;;9.02;4.13;;;29.70;82.90;;;;;;6171041;23;20083;-67
2022/07/16 06:53:09;;;;;;;9.55;4.03;;;29.80;83.70;;;;;;6148359;23;20371;-68
2022/07/16 06:55:35;;;;;;;6.40;3.92;;;29.90;82.80;;;;;;6178905;23;20013;-66
2022/07/16 06:58:00;;;;;;;6.90;4.18;;;29.90;82.30;;;;;;6153247;23;20091;-67
2022/07/16 07:00:26;;;;;;;7.10;4.18;;;29.90;82.70;;;;;;6176841;23;20020;-67
2022/07/16 07:02:52;;;;;;;9.65;4.13;;;29.90;82.50;;;;;;6152878;23;20027;-67
2022/07/16 07:05:18;;;;;;;7.05;3.90;;;29.90;82.80;;;;;;6177795;23;20017;-66
2022/07/16 07:07:43;;;;;;;7.35;3.83;;;29.80;82.90;;;;;;6152441;23;20024;-66
2022/07/16 07:10:09;;;;;;;8.10;4.03;;;29.90;83.10;;;;;;6177439;23;20092;-66
2022/07/16 07:12:35;;;;;;;5.97;4.03;;;29.90;82.90;;;;;;6179214;23;20080;-67
2022/07/16 07:15:01;;;;;;;9.40;3.78;;;29.90;82.80;;;;;;6179241;23;20041;-67
2022/07/16 07:17:27;;;;;;;11.50;4.63;;;29.90;83.30;;;;;;6189609;23;20431;-69
2022/07/16 07:19:53;;;;;;;6.18;3.53;;;29.90;83.30;;;;;;6178616;23;20017;-67
2022/07/16 07:22:19;;;;;;;6.57;3.30;;;29.90;83.20;;;;;;6177872;23;20100;-67
2022/07/16 07:24:44;;;;;;;8.70;3.40;;;30.00;82.70;;;;;;6178877;23;20005;-67
2022/07/16 07:27:10;;;;;;;8.35;3.22;;;30.00;82.70;;;;;;6177581;23;20040;-66
2022/07/16 07:29:37;;;;;;;6.18;3.08;;;29.90;83.70;;;;;;6179420;23;20096;-67
2022/07/16 07:32:03;;;;;;;6.88;3.33;;;29.90;82.90;;;;;;6177770;23;20116;-67
2022/07/16 07:34:29;;;;;;;8.43;3.25;;;29.90;83.70;;;;;;6178611;23;20005;-66
2022/07/16 07:36:55;;;;;;;5.32;3.28;;;29.90;83.10;;;;;;6178388;23;20009;-67
2022/07/16 07:39:21;;;;;;;6.70;3.20;;;30.00;83.20;;;;;;6177737;23;20115;-67
2022/07/16 07:41:47;;;;;;;4.65;2.80;;;30.00;83.50;;;;;;6151616;23;20057;-67
2022/07/16 07:44:13;;;;;;;5.95;2.95;;;30.10;83.80;;;;;;6177265;23;20019;-67
2022/07/16 07:46:39;;;;;;;8.65;3.45;;;30.20;84.10;;;;;;6163957;23;20095;-67
2022/07/16 07:49:05;;;;;;;6.88;3.50;;;30.20;84.30;;;;;;6177622;23;20013;-68
2022/07/16 07:51:31;;;;;;;7.25;3.17;;;30.30;84.20;;;;;;6179149;23;20005;-67
2022/07/16 07:53:56;;;;;;;6.28;2.95;;;30.20;84.30;;;;;;6152324;23;20064;-67
2022/07/16 07:56:22;;;;;;;7.30;3.30;;;30.30;84.40;;;;;;6176722;23;20426;-67
2022/07/16 07:58:48;;;;;;;8.57;3.33;;;30.30;84.40;;;;;;6178173;23;20539;-66
2022/07/16 08:01:14;;;;;;;6.28;3.17;;;30.30;84.10;;;;;;6176971;23;20032;-68
2022/07/16 08:03:39;;;;;;;16.33;3.30;;;30.20;84.80;;;;;;6152009;23;20017;-65
2022/07/16 08:06:05;;;;;;;8.02;3.17;;;30.30;85.20;;;;;;6176467;23;20013;-66
2022/07/16 08:08:31;;;;;;;7.00;3.00;;;30.30;85.30;;;;;;6150754;23;20020;-67
2022/07/16 08:10:57;;;;;;;5.38;3.40;;;30.30;85.60;;;;;;6177534;23;20021;-67
2022/07/16 08:13:22;;;;;;;6.70;3.17;;;30.40;85.30;;;;;;6177219;23;20447;-67
2022/07/16 08:15:48;;;;;;;3.38;2.58;;;30.60;85.20;;;;;;6178696;23;20025;-67
2022/07/16 08:18:14;;;;;;;6.68;2.95;;;30.60;84.40;;;;;;6150743;23;20016;-67
2022/07/16 08:20:40;;;;;;;6.63;3.30;;;30.70;84.30;;;;;;6178816;23;20452;-67
2022/07/16 08:23:06;;;;;;;5.25;3.30;;;30.70;84.60;;;;;;6150412;23;20147;-66
2022/07/16 08:25:44;;;;;;;6.00;2.83;;;30.80;84.60;;;;;;6177929;23;20088;-66
2022/07/16 08:28:10;;;;;;;7.93;3.28;;;30.80;85.10;;;;;;6176725;23;20013;-67
2022/07/16 08:30:37;;;;;;;11.63;3.53;;;30.80;85.30;;;;;;6178391;23;20452;-67
2022/07/16 08:33:03;;;;;;;6.22;3.10;;;30.60;85.10;;;;;;6150822;23;20051;-67
2022/07/16 08:35:28;;;;;;;5.72;2.90;;;30.70;84.90;;;;;;6178050;23;20040;-66
2022/07/16 08:37:54;;;;;;;6.93;2.60;;;30.80;84.00;;;;;;6177338;23;20020;-67
2022/07/16 08:40:22;;;;;;;7.15;2.83;;;30.90;84.30;;;;;;6177818;23;20076;-67
2022/07/16 08:42:49;;;;;;;9.05;2.95;;;31.10;84.30;;;;;;6177856;23;20040;-68
2022/07/16 08:45:17;;;;;;;6.55;3.20;;;31.00;84.80;;;;;;6177098;23;20067;-69
2022/07/16 08:47:43;;;;;;;4.20;3.03;;;31.10;84.70;;;;;;6177656;23;20008;-67
2022/07/16 08:50:13;;;;;;;6.38;2.53;;;31.30;84.50;;;;;;6176624;23;20322;-67
2022/07/16 08:52:50;;;;;;;4.57;2.75;;;31.40;84.30;;;;;;6152297;23;20012;-68
2022/07/16 08:55:17;;;;;;;7.75;3.13;;;31.50;83.60;;;;;;6151293;23;20469;-69
2022/07/16 08:57:48;;;;;;;6.18;2.58;;;31.30;84.80;;;;;;6178203;23;20108;-66
2022/07/16 09:00:14;;;;;;;6.85;2.50;;;31.20;85.00;;;;;;6150690;23;20092;-68
2022/07/16 09:02:41;;;;;;;5.80;2.75;;;31.30;84.80;;;;;;6177935;23;20021;-68
2022/07/16 09:05:08;;;;;;;6.55;2.80;;;31.40;84.00;;;;;;6176608;23;20013;-68
2022/07/16 09:07:34;;;;;;;7.40;2.22;;;31.50;83.20;;;;;;6150197;23;20017;-67
2022/07/16 09:10:01;;;;;;;5.35;2.72;;;31.80;82.20;;;;;;6178189;23;20009;-66
2022/07/16 09:12:34;;;;;;;4.57;2.90;;;31.70;82.70;;;;;;6149252;23;20059;-67
2022/07/16 09:15:20;;;;;;;6.45;2.58;;;31.70;82.60;;;;;;6177447;23;20090;-68
2022/07/16 09:18:05;;;;;;;3.88;2.50;;;31.80;82.80;;;;;;6184179;23;20017;-67
2022/07/16 09:20:31;;;;;;;4.90;2.83;;;32.00;82.60;;;;;;6188809;23;20020;-67
2022/07/16 09:22:57;;;;;;;4.30;2.50;;;32.10;82.90;;;;;;6177162;23;20028;-67
2022/07/16 09:25:23;;;;;;;4.75;2.63;;;32.00;82.60;;;;;;6176659;23;20080;-67
2022/07/16 09:27:58;;;;;;;4.97;2.70;;;32.00;83.10;;;;;;6178017;23;20017;-67
2022/07/16 09:30:24;;;;;;;5.40;2.58;;;32.30;83.40;;;;;;6150477;23;20009;-67
2022/07/16 09:32:50;;;;;;;10.15;2.60;;;32.20;83.00;;;;;;6177953;23;20020;-66
2022/07/16 09:35:18;;;;;;;7.18;2.70;;;32.30;82.30;;;;;;6176224;23;20140;-67
2022/07/16 09:37:56;;;;;;;7.13;2.70;;;32.40;81.90;;;;;;6177308;23;20020;-67
2022/07/16 09:40:31;;;;;;;4.57;2.80;;;32.40;82.00;;;;;;6175448;23;20088;-67
2022/07/16 09:42:58;;;;;;;5.95;2.70;;;32.60;81.60;;;;;;6177553;23;20016;-67
2022/07/16 09:45:24;;;;;;;6.10;2.75;;;32.60;80.80;;;;;;6176465;23;20037;-68
2022/07/16 09:47:50;;;;;;;5.90;2.50;;;32.50;81.20;;;;;;6150608;23;20504;-68
2022/07/16 09:50:15;;;;;;;4.75;2.53;;;32.80;80.70;;;;;;6176386;23;20033;-68
2022/07/16 09:52:41;;;;;;;7.35;2.50;;;32.90;80.00;;;;;;6150356;23;20091;-66
2022/07/16 09:55:08;;;;;;;7.53;2.40;;;32.90;80.70;;;;;;6175999;23;20013;-67
2022/07/16 09:57:34;;;;;;;3.65;2.50;;;33.00;80.00;;;;;;6177742;23;20037;-66
2022/07/16 10:00:00;;;;;;;7.22;2.65;;;32.90;80.50;;;;;;6177503;23;20333;-67
2022/07/16 10:02:28;;;;;;;5.57;2.67;;;33.10;80.50;;;;;;6176604;23;20035;-68
2022/07/16 10:04:54;;;;;;;4.22;2.53;;;33.20;80.60;;;;;;6177417;23;20095;-67
2022/07/16 10:07:20;;;;;;;7.57;2.65;;;33.10;80.50;;;;;;6176097;23;20099;-67
2022/07/16 10:09:46;;;;;;;4.82;2.42;;;32.70;80.00;;;;;;6150936;23;20005;-68
2022/07/16 10:12:18;;;;;;;10.02;2.55;;;32.60;80.00;;;;;;6176654;23;20062;-68
2022/07/16 10:14:50;;;;;;;4.55;2.20;;;32.60;79.50;;;;;;6150504;23;20013;-65
2022/07/16 10:17:17;;;;;;;;;;;32.90;79.10;;;;;;6177175;23;20025;-66
2022/07/16 10:19:44;;;;;;;8.60;2.70;;;33.10;81.20;;;;;;6178306;23;19935;-65
2022/07/16 10:22:31;;;;;;;4.63;2.42;;;33.10;79.70;;;;;;6178035;23;20506;-67
2022/07/16 10:24:58;;;;;;;8.45;2.67;;;33.00;80.20;;;;;;6179723;23;20005;-69
2022/07/16 10:27:34;;;;;;;4.95;2.50;;;33.10;80.30;;;;;;6178005;23;20085;-67
2022/07/16 10:30:12;;;;;;;5.25;2.30;;;33.30;79.80;;;;;;6152312;23;20078;-67
2022/07/16 10:33:02;;;;;;;7.03;2.47;;;33.00;79.60;;;;;;6161857;23;20001;-67
2022/07/16 10:35:30;;;;;;;9.95;2.60;;;33.10;79.80;;;;;;6177557;23;20456;-67
2022/07/16 10:38:07;;;;;;;6.20;2.72;;;33.20;79.40;;;;;;6179251;23;20449;-67
2022/07/16 10:40:36;;;;;;;8.45;2.38;;;33.60;79.10;;;;;;6177893;23;20017;-67
2022/07/16 10:43:22;;;;;;;10.23;2.58;;;33.80;78.40;;;;;;6153102;23;20028;-67
2022/07/16 10:45:50;;;;;;;4.93;2.30;;;33.30;78.10;;;;;;6186450;23;20059;-68
2022/07/16 10:48:17;;;;;;;6.45;2.53;;;33.20;79.00;;;;;;6151677;23;20071;-67
2022/07/16 10:51:16;;;;;;;4.97;2.30;;;33.50;78.20;;;;;;6179247;23;20055;-68
2022/07/16 10:53:57;;;;;;;6.85;2.50;;;33.50;77.70;;;;;;6161311;23;20020;-67
2022/07/16 10:56:39;;;;;;;4.47;2.17;;;33.80;78.20;;;;;;6151329;23;20066;-67
2022/07/16 10:59:08;;;;;;;6.22;2.10;;;33.80;78.40;;;;;;6177755;23;20017;-67
2022/07/16 11:01:39;;;;;;;7.80;2.55;;;33.80;78.30;;;;;;6178666;23;20017;-68
2022/07/16 11:04:06;;;;;;;4.40;2.03;;;33.90;77.50;;;;;;6178186;23;20096;-67
2022/07/16 11:06:32;;;;;;;3.03;2.03;;;34.00;77.20;;;;;;6152026;23;20087;-67
2022/07/16 11:09:04;;;;;;;5.93;2.35;;;34.20;77.70;;;;;;6179106;23;20445;-66
2022/07/16 11:11:37;;;;;;;;;;;34.30;77.50;;;;;;6151308;23;20009;-68
2022/07/16 11:14:04;;;;;;;7.93;2.22;;;34.50;77.60;;;;;;6150863;23;19915;-67
2022/07/16 11:16:30;;;;;;;4.38;2.30;;;34.50;77.40;;;;;;6178949;23;20414;-68
2022/07/16 11:19:02;;;;;;;4.10;2.25;;;34.80;77.60;;;;;;6151755;23;20017;-68
2022/07/16 11:21:28;;;;;;;4.55;2.08;;;34.90;77.50;;;;;;6161629;23;20619;-67
2022/07/16 11:23:58;;;;;;;6.25;2.47;;;35.10;76.70;;;;;;6170973;23;20091;-69
2022/07/16 11:26:25;;;;;;;8.07;2.80;;;34.90;77.50;;;;;;6169622;23;20388;-67
2022/07/16 11:28:52;;;;;;;9.23;2.70;;;35.10;77.60;;;;;;6171769;23;20037;-68
2022/07/16 11:31:38;;;;;;;7.03;2.72;;;35.10;77.80;;;;;;6170956;23;20009;-69
2022/07/16 11:34:06;;;;;;;3.75;2.35;;;34.60;76.80;;;;;;6169068;23;20020;-67
2022/07/16 11:36:34;;;;;;;4.82;2.47;;;34.70;78.00;;;;;;6169955;23;20091;-68
2022/07/16 11:39:04;;;;;;;4.50;2.38;;;35.10;77.70;;;;;;6171651;23;20095;-67
2022/07/16 11:41:35;;;;;;;4.97;2.50;;;35.60;77.40;;;;;;6156349;23;20151;-68
2022/07/16 11:44:11;;;;;;;9.97;2.73;;;35.90;77.50;;;;;;6169479;23;20696;-66
2022/07/16 11:46:46;;;;;;;4.60;2.58;;;36.00;77.10;;;;;;6143741;23;20615;-67
2022/07/16 11:49:25;;;;;;;4.53;2.65;;;36.00;77.80;;;;;;6169117;23;20028;-67
2022/07/16 11:51:53;;;;;;;4.85;2.20;;;35.90;77.80;;;;;;6170426;23;20009;-67
2022/07/16 11:54:20;;;;;;;2.88;2.17;;;36.20;75.80;;;;;;6168031;23;20676;-68
2022/07/16 11:56:46;;;;;;;3.65;2.35;;;35.70;76.70;;;;;;6168709;23;20028;-67
2022/07/16 11:59:21;;;;;;;2.83;2.05;;;35.70;77.40;;;;;;6143129;23;20120;-67
2022/07/16 12:02:08;;;;;;;7.78;2.78;;;35.30;78.10;;;;;;6170025;23;20017;-67
2022/07/16 12:04:44;;;;;;;4.90;2.30;;;35.10;77.20;;;;;;6152299;23;20013;-68
2022/07/16 12:07:25;;;;;;;4.65;2.30;;;35.30;77.40;;;;;;6141579;23;20005;-68
2022/07/16 12:09:53;;;;;;;5.25;2.40;;;35.50;77.70;;;;;;6120573;23;20017;-69
2022/07/16 12:12:23;;;;;;;6.10;2.17;;;35.60;78.00;;;;;;6168393;23;20032;-69
2022/07/16 12:14:59;;;;;;;8.60;2.40;;;36.00;77.40;;;;;;6171472;23;20903;-69
2022/07/16 12:17:28;;;;;;;4.03;2.33;;;36.20;75.90;;;;;;6171210;23;20016;-70
2022/07/16 12:20:18;;;;;;;5.78;2.30;;;35.70;76.20;;;;;;6169863;23;20432;-68
2022/07/16 12:23:02;;;;;;;5.80;2.50;;;35.70;77.90;;;;;;6167643;23;20059;-69
2022/07/16 12:25:28;;;;;;;6.38;2.53;;;35.60;78.00;;;;;;6168539;23;20013;-69
2022/07/16 12:27:57;;;;;;;4.03;2.20;;;36.50;77.30;;;;;;6144015;23;20036;-69
2022/07/16 12:30:56;;;;;;;8.10;2.50;;;37.00;76.80;;;;;;6168863;23;20009;-69
2022/07/16 12:33:21;;;;;;;6.75;2.50;;;36.60;76.20;;;;;;6141064;23;20027;-69
2022/07/16 12:35:49;;;;;;;6.35;2.45;;;36.40;76.20;;;;;;6144106;23;20005;-68
2022/07/16 12:38:49;;;;;;;6.72;2.50;;;36.50;76.40;;;;;;6142049;23;20025;-68
2022/07/16 12:41:30;;;;;;;3.25;2.08;;;36.90;76.60;;;;;;6141743;23;20051;-69
2022/07/16 12:44:00;;;;;;;3.77;2.50;;;37.40;76.90;;;;;;6143088;23;20069;-70
2022/07/16 12:46:31;;;;;;;4.43;2.57;;;37.80;76.80;;;;;;6166754;23;20247;-70
2022/07/16 12:49:03;;;;;;;2.70;1.90;;;38.20;75.80;;;;;;6170367;23;20040;-68
2022/07/16 12:51:43;;;;;;;13.20;2.28;;;38.40;75.50;;;;;;6172839;23;20067;-70
2022/07/16 12:54:10;;;;;;;7.07;2.40;;;38.60;74.90;;;;;;6144955;23;20420;-69
2022/07/16 12:59:22;;;;;;;3.63;2.22;;;38.20;74.80;;;;;;6171235;23;20166;-68